Time;durP1;ratioP1;P1;durP2;ratioP2;P2;SDS_P1;SDS_P2;PMS_P1;PMS_P2;Temp;Humidity;BMP_temperature;BMP_pressure;BME280_temperature;BME280_humidity;BME280_pressure;Samples;Min_cycle;Max_cycle;Signal;HPM_P1;HPM_P2
2021/08/21 00:01:52;;;;;;;;;;;21.50;64.00;;;;;;5018360;28;19913;-60
2021/08/21 00:04:17;;;;;;;;;;;21.50;64.10;;;;;;5019072;28;20448;-60
2021/08/21 00:06:43;;;;;;;;;;;21.50;64.00;;;;;;5020593;28;19917;-60
2021/08/21 00:09:09;;;;;;;;;;;21.50;63.90;;;;;;5019094;28;19917;-61
2021/08/21 00:11:34;;;;;;;;;;;21.50;63.90;;;;;;5019467;28;20442;-59
2021/08/21 00:14:00;;;;;;;;;;;21.50;63.90;;;;;;5018305;28;19925;-61
2021/08/21 00:16:25;;;;;;;;;;;21.50;63.90;;;;;;5018899;28;20263;-58
2021/08/21 00:18:50;;;;;;;;;;;21.50;63.80;;;;;;5017290;28;19925;-59
2021/08/21 00:21:16;;;;;;;;;;;21.50;63.70;;;;;;5020521;28;19921;-58
2021/08/21 00:23:41;;;;;;;;;;;21.50;63.70;;;;;;5021167;28;20085;-58
2021/08/21 00:26:07;;;;;;;;;;;21.50;63.60;;;;;;5023166;28;20016;-59
2021/08/21 00:28:32;;;;;;;;;;;21.50;63.60;;;;;;5022507;28;19913;-58
2021/08/21 00:30:58;;;;;;;;;;;21.50;63.60;;;;;;5023263;28;19924;-61
2021/08/21 00:33:23;;;;;;;;;;;21.50;63.60;;;;;;5021553;28;19917;-62
2021/08/21 00:35:49;;;;;;;;;;;21.50;63.50;;;;;;5023276;28;20645;-56
2021/08/21 00:38:14;;;;;;;;;;;21.50;63.50;;;;;;5022283;28;19939;-57
2021/08/21 00:40:39;;;;;;;;;;;21.50;63.50;;;;;;5021685;28;19917;-60
2021/08/21 00:43:05;;;;;;;;;;;21.50;63.50;;;;;;5020987;28;19917;-60
2021/08/21 00:45:30;;;;;;;;;;;21.50;63.30;;;;;;5023028;28;20370;-62
2021/08/21 00:47:56;;;;;;;;;;;21.50;63.10;;;;;;5016142;28;19917;-61
2021/08/21 00:50:21;;;;;;;;;;;21.50;63.30;;;;;;5033607;28;19924;-61
2021/08/21 00:52:47;;;;;;;;;;;21.50;63.30;;;;;;5021302;28;19918;-59
2021/08/21 00:55:12;;;;;;;;;;;21.50;63.20;;;;;;5021195;28;19919;-60
2021/08/21 00:57:38;;;;;;;;;;;21.50;63.20;;;;;;5022821;28;19921;-62
2021/08/21 01:00:03;;;;;;;;;;;21.50;63.20;;;;;;5022637;28;19921;-60
2021/08/21 01:02:31;;;;;;;;;;;21.50;63.20;;;;;;5020473;28;20395;-59
2021/08/21 01:04:57;;;;;;;;;;;21.50;63.10;;;;;;5020882;28;19917;-61
2021/08/21 01:07:27;;;;;;;;;;;21.50;63.10;;;;;;5020476;28;20321;-60
2021/08/21 01:09:52;;;;;;;;;;;21.50;63.10;;;;;;5022224;28;19992;-59
2021/08/21 01:12:18;;;;;;;;;;;21.50;63.20;;;;;;5018370;28;20844;-62
2021/08/21 01:14:44;;;;;;;;;;;21.50;63.10;;;;;;5023005;28;19914;-60
2021/08/21 01:17:09;;;;;;;;;;;21.50;63.30;;;;;;5020149;28;19917;-62
2021/08/21 01:19:35;;;;;;;;;;;21.50;63.20;;;;;;5020461;28;20450;-57
2021/08/21 01:22:01;;;;;;;;;;;21.50;63.20;;;;;;5019467;28;19917;-58
2021/08/21 01:24:26;;;;;;;;;;;21.40;63.80;;;;;;5021953;28;20364;-59
2021/08/21 01:26:55;;;;;;;;;;;21.40;63.10;;;;;;5020002;28;19917;-60
2021/08/21 01:29:20;;;;;;;;;;;21.50;63.10;;;;;;5033775;22;20122;-60
2021/08/21 01:31:46;;;;;;;;;;;21.50;63.00;;;;;;5034495;28;20349;-61
2021/08/21 01:34:12;;;;;;;;;;;21.50;62.90;;;;;;5042406;28;19976;-60
2021/08/21 01:36:41;;;;;;;;;;;21.50;63.00;;;;;;5041927;28;19921;-60
2021/08/21 01:39:06;;;;;;;;;;;21.50;62.90;;;;;;5041301;28;19988;-61
2021/08/21 01:41:31;;;;;;;;;;;21.50;62.90;;;;;;5041604;28;19917;-61
2021/08/21 01:43:57;;;;;;;;;;;21.50;63.20;;;;;;5041876;28;20479;-61
2021/08/21 01:46:23;;;;;;;;;;;21.50;63.00;;;;;;5039445;28;20265;-61
2021/08/21 01:48:48;;;;;;;;;;;21.50;63.10;;;;;;5040298;28;20007;-61
2021/08/21 01:51:15;;;;;;;;;;;21.40;62.90;;;;;;5041984;28;19912;-61
2021/08/21 01:53:40;;;;;;;;;;;21.40;62.90;;;;;;5041298;28;20009;-61
2021/08/21 01:56:06;;;;;;;;;;;21.40;63.00;;;;;;5041621;28;19948;-61
2021/08/21 01:58:31;;;;;;;;;;;21.40;63.00;;;;;;5041871;28;19928;-60
2021/08/21 02:00:58;;;;;;;;;;;21.40;63.00;;;;;;5041807;28;19921;-61
2021/08/21 02:03:25;;;;;;;;;;;21.40;63.10;;;;;;5041950;28;20486;-61
2021/08/21 02:05:50;;;;;;;;;;;21.40;62.90;;;;;;5040204;28;19966;-61
2021/08/21 02:08:17;;;;;;;;;;;21.40;62.90;;;;;;5042028;28;20327;-60
2021/08/21 02:10:42;;;;;;;;;;;21.50;62.90;;;;;;5041562;28;20692;-61
2021/08/21 02:13:08;;;;;;;;;;;21.40;62.80;;;;;;5041623;28;20365;-60
2021/08/21 02:15:33;;;;;;;;;;;21.40;62.90;;;;;;5041082;28;20133;-60
2021/08/21 02:17:59;;;;;;;;;;;21.40;62.80;;;;;;5039234;28;20054;-60
2021/08/21 02:20:36;;;;;;;;;;;21.40;62.80;;;;;;5040823;28;20285;-61
2021/08/21 02:23:02;;;;;;;;;;;21.40;62.70;;;;;;5040886;28;19948;-60
2021/08/21 02:25:29;;;;;;;;;;;21.40;62.80;;;;;;5041229;28;19920;-61
2021/08/21 02:27:55;;;;;;;;;;;21.40;62.80;;;;;;5039934;28;19912;-61
2021/08/21 02:30:21;;;;;;;;;;;21.40;62.70;;;;;;5039442;28;19974;-61
2021/08/21 02:32:46;;;;;;;;;;;21.40;62.70;;;;;;5040701;28;19920;-60
2021/08/21 02:35:12;;;;;;;;;;;21.40;62.50;;;;;;5040906;28;19923;-59
2021/08/21 02:37:37;;;;;;;;;;;21.40;62.30;;;;;;5039942;28;19928;-60
2021/08/21 02:40:03;;;;;;;;;;;21.50;62.50;;;;;;5039418;28;20286;-61
2021/08/21 02:42:28;;;;;;;;;;;21.40;62.30;;;;;;5041036;28;19917;-59
2021/08/21 02:44:54;;;;;;;;;;;21.40;62.50;;;;;;5040591;28;19913;-61
2021/08/21 02:47:19;;;;;;;;;;;21.40;62.50;;;;;;5040358;28;20320;-60
2021/08/21 02:49:45;;;;;;;;;;;21.40;62.30;;;;;;5040850;28;19916;-60
2021/08/21 02:52:10;;;;;;;;;;;21.40;62.40;;;;;;5040165;28;19917;-61
2021/08/21 02:54:36;;;;;;;;;;;21.40;62.20;;;;;;5040528;28;19925;-61
2021/08/21 02:57:01;;;;;;;;;;;21.40;62.10;;;;;;5041160;28;19912;-61
2021/08/21 02:59:26;;;;;;;;;;;21.40;62.20;;;;;;5040474;28;19956;-63
2021/08/21 03:01:52;;;;;;;;;;;21.40;62.90;;;;;;5040345;28;20381;-60
2021/08/21 03:04:18;;;;;;;;;;;21.40;62.20;;;;;;5041334;28;19936;-64
2021/08/21 03:06:43;;;;;;;;;;;21.40;62.20;;;;;;5040491;28;19924;-63
2021/08/21 03:09:09;;;;;;;;;;;21.40;62.20;;;;;;5036420;28;20382;-63
2021/08/21 03:11:34;;;;;;;;;;;21.40;62.20;;;;;;5033237;28;20023;-63
2021/08/21 03:14:00;;;;;;;;;;;21.30;61.90;;;;;;5040256;28;19962;-63
2021/08/21 03:16:25;;;;;;;;;;;21.40;62.00;;;;;;5039742;28;20392;-60
2021/08/21 03:18:51;;;;;;;;;;;21.40;62.10;;;;;;5039984;28;19983;-62
2021/08/21 03:21:16;;;;;;;;;;;21.40;62.00;;;;;;5040064;28;19921;-61
2021/08/21 03:23:42;;;;;;;;;;;21.30;61.90;;;;;;5040057;28;19912;-63
2021/08/21 03:26:08;;;;;;;;;;;21.40;62.00;;;;;;5040402;28;20578;-62
2021/08/21 03:28:33;;;;;;;;;;;21.40;62.00;;;;;;5040148;28;20456;-63
2021/08/21 03:30:58;;;;;;;;;;;21.30;61.90;;;;;;5036633;28;19924;-62
2021/08/21 03:33:24;;;;;;;;;;;21.30;61.90;;;;;;5040081;28;19913;-62
2021/08/21 03:35:49;;;;;;;;;;;21.30;61.80;;;;;;5039936;28;20058;-62
2021/08/21 03:38:15;;;;;;;;;;;21.30;61.70;;;;;;5040274;28;19917;-63
2021/08/21 03:40:40;;;;;;;;;;;21.30;61.80;;;;;;5039674;28;19917;-63
2021/08/21 03:43:06;;;;;;;;;;;21.30;61.70;;;;;;5039497;28;19923;-64
2021/08/21 03:45:31;;;;;;;;;;;21.30;61.70;;;;;;5040003;28;19928;-62
2021/08/21 03:47:57;;;;;;;;;;;21.30;61.70;;;;;;5033181;28;19913;-61
2021/08/21 03:50:22;;;;;;;;;;;21.30;61.80;;;;;;5039468;28;19913;-63
2021/08/21 03:52:48;;;;;;;;;;;21.30;61.80;;;;;;5039736;28;19921;-63
2021/08/21 03:55:14;;;;;;;;;;;21.30;61.70;;;;;;5039275;28;19956;-62
2021/08/21 03:57:40;;;;;;;;;;;21.30;61.60;;;;;;5039263;28;19920;-62
2021/08/21 04:00:06;;;;;;;;;;;21.30;61.60;;;;;;5039677;28;19924;-62
2021/08/21 04:02:31;;;;;;;;;;;21.30;61.60;;;;;;5039114;28;19999;-62
2021/08/21 04:04:56;;;;;;;;;;;21.30;61.60;;;;;;5038918;28;19970;-62
2021/08/21 04:07:22;;;;;;;;;;;21.30;61.60;;;;;;5039795;28;19916;-63
2021/08/21 04:09:47;;;;;;;;;;;21.30;61.70;;;;;;5040060;28;19966;-62
2021/08/21 04:12:16;;;;;;;;;;;21.30;61.60;;;;;;5039377;28;19917;-62
2021/08/21 04:14:41;;;;;;;;;;;21.30;61.70;;;;;;5039590;28;20027;-63
2021/08/21 04:17:07;;;;;;;;;;;21.30;61.70;;;;;;5039367;28;20062;-61
2021/08/21 04:19:32;;;;;;;;;;;21.30;61.60;;;;;;5039280;28;19936;-62
2021/08/21 04:21:58;;;;;;;;;;;21.30;61.60;;;;;;5039390;28;20319;-63
2021/08/21 04:24:23;;;;;;;;;;;21.30;61.60;;;;;;5038866;28;19920;-63
2021/08/21 04:26:49;;;;;;;;;;;21.30;61.50;;;;;;5039355;28;19917;-64
2021/08/21 04:29:14;;;;;;;;;;;21.30;61.60;;;;;;5039494;28;20078;-62
2021/08/21 04:31:40;;;;;;;;;;;21.30;61.60;;;;;;5037533;28;19921;-62
2021/08/21 04:34:05;;;;;;;;;;;21.30;61.50;;;;;;5037918;28;19917;-62
2021/08/21 04:36:30;;;;;;;;;;;21.30;61.50;;;;;;5039457;28;19913;-61
2021/08/21 04:38:56;;;;;;;;;;;21.20;61.50;;;;;;5038742;28;19974;-61
2021/08/21 04:41:21;;;;;;;;;;;21.30;61.60;;;;;;5039074;28;20397;-64
2021/08/21 04:43:47;;;;;;;;;;;21.20;61.50;;;;;;5039373;28;19916;-60
2021/08/21 04:46:12;;;;;;;;;;;21.30;61.60;;;;;;5039188;28;19924;-62
2021/08/21 04:48:38;;;;;;;;;;;21.20;61.50;;;;;;5039147;28;21371;-62
2021/08/21 04:51:03;;;;;;;;;;;21.20;61.50;;;;;;5038965;28;19916;-62
2021/08/21 04:53:29;;;;;;;;;;;21.20;61.60;;;;;;5039015;28;20019;-61
2021/08/21 04:55:54;;;;;;;;;;;21.20;61.60;;;;;;5039074;28;19917;-62
2021/08/21 04:58:20;;;;;;;;;;;21.20;61.50;;;;;;5039026;28;19916;-62
2021/08/21 05:00:45;;;;;;;;;;;21.20;61.50;;;;;;5039318;28;19978;-62
2021/08/21 05:03:10;;;;;;;;;;;21.20;61.50;;;;;;5038601;28;20404;-60
2021/08/21 05:05:36;;;;;;;;;;;21.20;61.60;;;;;;5038876;28;20064;-59
2021/08/21 05:08:01;;;;;;;;;;;21.20;61.40;;;;;;5040749;28;19916;-62
2021/08/21 05:10:27;;;;;;;;;;;21.20;61.40;;;;;;5041614;28;19939;-60
2021/08/21 05:12:52;;;;;;;;;;;21.20;61.30;;;;;;5042591;28;19916;-58
2021/08/21 05:15:18;;;;;;;;;;;21.20;61.30;;;;;;5042753;28;19948;-60
2021/08/21 05:17:44;;;;;;;;;;;21.20;61.40;;;;;;5041981;28;19913;-61
2021/08/21 05:20:26;;;;;;;;;;;21.20;61.30;;;;;;5042662;28;20265;-61
2021/08/21 05:23:08;;;;;;;;;;;21.20;61.40;;;;;;5038423;28;20008;-61
2021/08/21 05:25:40;;;;;;;;;;;21.20;61.40;;;;;;5041718;28;20482;-61
2021/08/21 05:28:06;;;;;;;;;;;21.20;61.40;;;;;;5041717;28;20098;-61
2021/08/21 05:30:32;;;;;;;;;;;21.10;61.40;;;;;;5041530;28;20008;-62
2021/08/21 05:32:57;;;;;;;;;;;21.20;61.50;;;;;;5042002;28;20416;-61
2021/08/21 05:35:23;;;;;;;;;;;21.20;61.50;;;;;;5042268;28;19917;-60
2021/08/21 05:37:48;;;;;;;;;;;21.20;61.40;;;;;;5042411;28;19913;-62
2021/08/21 05:40:14;;;;;;;;;;;21.20;61.50;;;;;;5041935;28;20300;-61
2021/08/21 05:42:39;;;;;;;;;;;21.20;61.50;;;;;;5023835;28;19971;-60
2021/08/21 05:45:05;;;;;;;;;;;21.20;61.50;;;;;;5041166;28;20412;-61
2021/08/21 05:47:30;;;;;;;;;;;21.20;61.50;;;;;;5040796;28;19913;-61
2021/08/21 05:50:00;;;;;;;;;;;21.20;61.60;;;;;;5041189;28;20332;-61
2021/08/21 05:52:26;;;;;;;;;;;21.10;61.50;;;;;;5041571;28;20010;-61
2021/08/21 05:54:51;;;;;;;;;;;21.20;61.50;;;;;;5042202;28;19952;-60
2021/08/21 05:57:17;;;;;;;;;;;21.20;61.60;;;;;;5042121;28;20340;-61
2021/08/21 05:59:43;;;;;;;;;;;21.20;61.60;;;;;;5041212;28;19917;-61
2021/08/21 06:02:08;;;;;;;;;;;21.20;61.60;;;;;;5040274;28;19963;-61
2021/08/21 06:04:34;;;;;;;;;;;21.10;61.60;;;;;;5041721;28;19913;-61
2021/08/21 06:06:59;;;;;;;;;;;21.20;61.70;;;;;;5041012;28;20574;-61
2021/08/21 06:09:25;;;;;;;;;;;21.20;61.80;;;;;;5040703;28;19935;-61
2021/08/21 06:11:50;;;;;;;;;;;21.20;61.90;;;;;;5039905;28;19928;-62
2021/08/21 06:14:16;;;;;;;;;;;21.20;61.90;;;;;;5041534;28;19924;-61
2021/08/21 06:16:41;;;;;;;;;;;21.20;61.90;;;;;;5040992;28;20520;-62
2021/08/21 06:19:06;;;;;;;;;;;21.20;61.90;;;;;;5040993;28;19947;-62
2021/08/21 06:21:32;;;;;;;;;;;21.20;62.00;;;;;;5040699;28;19921;-61
2021/08/21 06:23:57;;;;;;;;;;;21.10;62.00;;;;;;5041018;28;19916;-62
2021/08/21 06:26:23;;;;;;;;;;;21.20;62.10;;;;;;5041381;28;20426;-63
2021/08/21 06:28:48;;;;;;;;;;;21.20;62.20;;;;;;5041353;28;19975;-59
2021/08/21 06:31:14;;;;;;;;;;;21.20;62.30;;;;;;5040765;28;19917;-60
2021/08/21 06:33:39;;;;;;;;;;;21.10;62.20;;;;;;5041811;28;19924;-58
2021/08/21 06:36:05;;;;;;;;;;;21.20;62.30;;;;;;5041442;28;19913;-60
2021/08/21 06:38:30;;;;;;;;;;;21.20;62.30;;;;;;5041581;28;20398;-60
2021/08/21 06:40:56;;;;;;;;;;;21.20;62.40;;;;;;5041183;28;19978;-59
2021/08/21 06:43:21;;;;;;;;;;;21.10;62.40;;;;;;5039062;28;19923;-59
2021/08/21 06:45:46;;;;;;;;;;;21.10;62.50;;;;;;5040890;28;20366;-60
2021/08/21 06:48:12;;;;;;;;;;;21.10;62.60;;;;;;5040131;28;19913;-59
2021/08/21 06:50:37;;;;;;;;;;;21.10;62.70;;;;;;5040762;28;20446;-59
2021/08/21 06:53:03;;;;;;;;;;;21.10;62.80;;;;;;5040164;28;19912;-58
2021/08/21 06:55:29;;;;;;;;;;;21.10;62.90;;;;;;5041349;28;20007;-60
2021/08/21 06:57:54;;;;;;;;;;;21.10;63.00;;;;;;5041131;28;19917;-60
2021/08/21 07:00:20;;;;;;;;;;;21.10;63.20;;;;;;5043084;28;20824;-65
2021/08/21 07:02:45;;;;;;;;;;;21.10;63.50;;;;;;5043801;28;20084;-60
2021/08/21 07:05:11;;;;;;;;;;;21.10;63.70;;;;;;5043487;28;19917;-59
2021/08/21 07:07:36;;;;;;;;;;;21.10;63.90;;;;;;5043176;28;19917;-60
2021/08/21 07:10:05;;;;;;;;;;;21.00;64.00;;;;;;5058505;28;19956;-59
2021/08/21 07:12:30;;;;;;;;;;;21.10;64.10;;;;;;5043183;28;20236;-60
2021/08/21 07:14:55;;;;;;;;;;;21.10;64.30;;;;;;5043558;28;19920;-59
2021/08/21 07:17:21;;;;;;;;;;;21.10;64.30;;;;;;5043414;28;19913;-60
2021/08/21 07:19:46;;;;;;;;;;;21.10;64.40;;;;;;5043444;28;19931;-60
2021/08/21 07:22:12;;;;;;;;;;;21.10;64.60;;;;;;5043093;28;20374;-60
2021/08/21 07:24:37;;;;;;;;;;;21.00;64.50;;;;;;5042984;28;19959;-59
2021/08/21 07:27:03;;;;;;;;;;;21.00;64.90;;;;;;5043313;28;19917;-58
2021/08/21 07:29:28;;;;;;;;;;;21.00;65.30;;;;;;5068760;22;19932;-59
2021/08/21 07:31:54;;;;;;;;;;;21.10;65.70;;;;;;5033797;28;19920;-58
2021/08/21 07:34:19;;;;;;;;;;;21.00;65.80;;;;;;5043553;28;19912;-59
2021/08/21 07:36:45;;;;;;;;;;;21.00;65.80;;;;;;5042203;28;20436;-57
2021/08/21 07:39:10;;;;;;;;;;;21.00;65.80;;;;;;5040885;28;19921;-58
2021/08/21 07:41:36;;;;;;;;;;;21.00;65.70;;;;;;5024663;28;19967;-60
2021/08/21 07:44:02;;;;;;;;;;;21.00;65.70;;;;;;5042628;28;20392;-59
2021/08/21 07:46:28;;;;;;;;;;;21.00;65.50;;;;;;5024733;28;19921;-59
2021/08/21 07:48:53;;;;;;;;;;;21.00;65.30;;;;;;5022508;28;19917;-60
2021/08/21 07:51:18;;;;;;;;;;;21.00;64.90;;;;;;5021142;28;20467;-58
2021/08/21 07:53:44;;;;;;;;;;;21.10;64.70;;;;;;5019845;28;19913;-59
2021/08/21 07:56:09;;;;;;;;;;;21.00;64.60;;;;;;5022243;28;19924;-59
2021/08/21 07:58:35;;;;;;;;;;;21.00;64.50;;;;;;5022522;28;20554;-59
2021/08/21 08:01:00;;;;;;;;;;;21.00;64.30;;;;;;5023698;28;19925;-60
2021/08/21 08:03:26;;;;;;;;;;;21.00;64.30;;;;;;5040492;28;19976;-60
2021/08/21 08:05:52;;;;;;;;;;;21.00;64.10;;;;;;5040931;28;19920;-59
2021/08/21 08:08:17;;;;;;;;;;;21.00;64.00;;;;;;5039826;28;19913;-59
2021/08/21 08:10:43;;;;;;;;;;;21.00;63.90;;;;;;5041531;28;19939;-60
2021/08/21 08:13:08;;;;;;;;;;;21.00;63.80;;;;;;5041776;28;19919;-59
2021/08/21 08:15:34;;;;;;;;;;;21.00;63.70;;;;;;5042567;28;19979;-60
2021/08/21 08:17:59;;;;;;;;;;;21.00;63.60;;;;;;5042190;28;20092;-61
2021/08/21 08:20:26;;;;;;;;;;;21.00;63.60;;;;;;5042848;28;20304;-60
2021/08/21 08:22:52;;;;;;;;;;;21.00;63.50;;;;;;5042003;28;19920;-60
2021/08/21 08:25:17;;;;;;;;;;;21.00;63.50;;;;;;5041499;28;19917;-59
2021/08/21 08:27:45;;;;;;;;;;;21.00;63.40;;;;;;5042319;28;19941;-57
2021/08/21 08:30:10;;;;;;;;;;;21.00;63.40;;;;;;5032446;28;19936;-60
2021/08/21 08:32:36;;;;;;;;;;;21.00;63.40;;;;;;5022032;28;19917;-59
2021/08/21 08:35:01;;;;;;;;;;;21.00;63.40;;;;;;5022605;28;19917;-60
2021/08/21 08:37:27;;;;;;;;;;;21.00;63.40;;;;;;5040882;28;20416;-59
2021/08/21 08:39:52;;;;;;;;;;;21.00;63.40;;;;;;5041285;28;19948;-59
2021/08/21 08:42:18;;;;;;;;;;;21.00;63.40;;;;;;5041824;28;19913;-60
2021/08/21 08:44:46;;;;;;;;;;;21.00;63.40;;;;;;5043942;28;19916;-59
2021/08/21 08:47:15;;;;;;;;;;;21.00;63.40;;;;;;5043766;28;19923;-59
2021/08/21 08:49:40;;;;;;;;;;;21.00;63.30;;;;;;5045077;28;20492;-60
2021/08/21 08:52:06;;;;;;;;;;;21.00;63.20;;;;;;5045494;28;19999;-59
2021/08/21 08:54:32;;;;;;;;;;;21.00;63.20;;;;;;5044383;28;20275;-59
2021/08/21 08:56:57;;;;;;;;;;;21.00;63.20;;;;;;5043923;28;19924;-59
2021/08/21 08:59:22;;;;;;;;;;;21.00;63.10;;;;;;5045489;28;20274;-59
2021/08/21 09:01:48;;;;;;;;;;;21.00;63.10;;;;;;5027452;28;19928;-58
2021/08/21 09:04:17;;;;;;;;;;;21.00;63.00;;;;;;5024759;28;19913;-60
2021/08/21 09:06:42;;;;;;;;;;;21.00;63.00;;;;;;5025635;28;19976;-58
2021/08/21 09:09:09;;;;;;;;;;;21.00;63.10;;;;;;5024253;28;19921;-60
2021/08/21 09:11:34;;;;;;;;;;;21.00;63.10;;;;;;5024515;28;19913;-60
2021/08/21 09:14:14;;;;;;;;;;;21.00;62.90;;;;;;5024398;28;19913;-59
2021/08/21 09:16:39;;;;;;;;;;;21.00;62.70;;;;;;5026067;28;19924;-60
2021/08/21 09:19:05;;;;;;;;;;;21.00;62.70;;;;;;5023999;28;19978;-58
2021/08/21 09:21:31;;;;;;;;;;;20.90;62.60;;;;;;5024256;28;19921;-60
2021/08/21 09:23:56;;;;;;;;;;;20.90;62.50;;;;;;5024350;28;20348;-60
2021/08/21 09:26:31;;;;;;;;;;;20.90;62.50;;;;;;5025510;28;19917;-60
2021/08/21 09:28:58;;;;;;;;;;;21.00;62.50;;;;;;5025149;28;19919;-59
2021/08/21 09:31:24;;;;;;;;;;;21.00;62.70;;;;;;5024971;28;19925;-60
2021/08/21 09:33:51;;;;;;;;;;;20.90;62.60;;;;;;5023288;28;20290;-60
2021/08/21 09:36:25;;;;;;;;;;;21.00;62.80;;;;;;5025161;28;20593;-60
2021/08/21 09:38:51;;;;;;;;;;;21.00;62.90;;;;;;5024688;28;19913;-64
2021/08/21 09:41:16;;;;;;;;;;;20.90;63.00;;;;;;5023899;28;19921;-58
2021/08/21 09:43:42;;;;;;;;;;;20.90;63.00;;;;;;5025408;28;19913;-60
2021/08/21 09:46:07;;;;;;;;;;;20.90;63.20;;;;;;5025317;28;19917;-60
2021/08/21 09:48:33;;;;;;;;;;;20.90;63.20;;;;;;5024635;28;19956;-58
2021/08/21 09:50:58;;;;;;;;;;;21.00;63.30;;;;;;5025098;28;20263;-61
2021/08/21 09:53:24;;;;;;;;;;;21.00;63.30;;;;;;5025153;28;19917;-61
2021/08/21 09:55:49;;;;;;;;;;;21.00;63.40;;;;;;5024329;28;19920;-59
2021/08/21 09:58:16;;;;;;;;;;;20.90;63.30;;;;;;5023687;28;19913;-58
2021/08/21 10:00:43;;;;;;;;;;;21.00;63.40;;;;;;5036164;28;20393;-59
2021/08/21 10:03:09;;;;;;;;;;;20.90;63.20;;;;;;5032077;28;20001;-61
2021/08/21 10:05:34;;;;;;;;;;;21.00;63.30;;;;;;5047632;28;20290;-59
2021/08/21 10:08:08;;;;;;;;;;;21.00;63.30;;;;;;5040229;28;20430;-59
2021/08/21 10:10:35;;;;;;;;;;;20.90;63.20;;;;;;5044595;28;19913;-59
2021/08/21 10:13:08;;;;;;;;;;;21.00;63.20;;;;;;5043355;28;20374;-60
2021/08/21 10:15:37;;;;;;;;;;;21.00;62.90;;;;;;5044725;28;20321;-59
2021/08/21 10:18:03;;;;;;;;;;;21.00;62.90;;;;;;5044354;28;20058;-60
2021/08/21 10:20:28;;;;;;;;;;;21.00;63.00;;;;;;5044885;28;20016;-60
2021/08/21 10:22:54;;;;;;;;;;;21.00;63.00;;;;;;5043636;28;19932;-60
2021/08/21 10:25:19;;;;;;;;;;;21.00;63.10;;;;;;5041882;28;20649;-61
2021/08/21 10:27:46;;;;;;;;;;;21.00;63.10;;;;;;5042596;28;19982;-58
2021/08/21 10:30:14;;;;;;;;;;;21.00;63.20;;;;;;5044153;28;19921;-60
2021/08/21 10:32:43;;;;;;;;;;;21.00;63.00;;;;;;5044521;28;19913;-58
2021/08/21 10:35:10;;;;;;;;;;;21.00;62.40;;;;;;5044680;28;19927;-60
2021/08/21 10:37:36;;;;;;;;;;;21.00;62.30;;;;;;5042643;28;19923;-58
2021/08/21 10:40:20;;;;;;;;;;;21.00;62.30;;;;;;5044191;28;19920;-58
2021/08/21 10:42:58;;;;;;;;;;;21.00;62.40;;;;;;5044231;28;19941;-60
2021/08/21 10:45:38;;;;;;;;;;;20.90;62.50;;;;;;5044160;28;20041;-59
2021/08/21 10:48:04;;;;;;;;;;;21.00;62.60;;;;;;5029332;28;20432;-60
2021/08/21 10:50:30;;;;;;;;;;;21.00;62.80;;;;;;5022868;28;19917;-62
2021/08/21 10:52:57;;;;;;;;;;;21.00;62.80;;;;;;5022882;28;20138;-59
2021/08/21 10:55:23;;;;;;;;;;;21.00;62.70;;;;;;5022370;28;20004;-58
2021/08/21 10:57:58;;;;;;;;;;;20.90;62.50;;;;;;5023634;28;19917;-61
2021/08/21 11:00:42;;;;;;;;;;;21.00;62.70;;;;;;5024171;28;19921;-60
2021/08/21 11:03:08;;;;;;;;;;;21.00;62.80;;;;;;5022594;28;19921;-59
2021/08/21 11:05:52;;;;;;;;;;;21.00;62.40;;;;;;5023055;28;19948;-59
2021/08/21 11:08:18;;;;;;;;;;;21.00;62.20;;;;;;5023747;28;19917;-60
2021/08/21 11:10:44;;;;;;;;;;;21.00;62.30;;;;;;5023944;28;19924;-61
2021/08/21 11:13:11;;;;;;;;;;;21.00;62.50;;;;;;5023590;28;20016;-61
2021/08/21 11:15:37;;;;;;;;;;;21.00;62.60;;;;;;5022509;28;19913;-58
2021/08/21 11:18:03;;;;;;;;;;;21.00;62.30;;;;;;5021882;28;19920;-60
2021/08/21 11:20:32;;;;;;;;;;;20.90;62.00;;;;;;5022297;28;20392;-60
2021/08/21 11:23:06;;;;;;;;;;;21.00;62.20;;;;;;5021879;28;19975;-58
2021/08/21 11:25:32;;;;;;;;;;;21.00;62.30;;;;;;5022604;28;19913;-59
2021/08/21 11:28:01;;;;;;;;;;;21.00;61.90;;;;;;5022939;28;19924;-60
2021/08/21 11:30:27;;;;;;;;;;;21.00;61.40;;;;;;5022445;28;20014;-59
2021/08/21 11:32:58;;;;;;;;;;;21.00;61.50;;;;;;5023087;28;19921;-61
2021/08/21 11:35:23;;;;;;;;;;;21.00;61.70;;;;;;5021963;28;19917;-60
2021/08/21 11:37:50;;;;;;;;;;;21.00;61.50;;;;;;5022597;28;19924;-64
2021/08/21 11:40:16;;;;;;;;;;;21.00;62.20;;;;;;5023241;28;20000;-61
2021/08/21 11:42:48;;;;;;;;;;;21.00;62.60;;;;;;5021450;28;19920;-60
2021/08/21 11:45:14;;;;;;;;;;;21.00;62.90;;;;;;5022396;28;20187;-60
2021/08/21 11:47:39;;;;;;;;;;;21.00;63.00;;;;;;5020914;28;19916;-61
2021/08/21 11:50:25;;;;;;;;;;;21.00;63.10;;;;;;5022416;28;20645;-60
2021/08/21 11:52:51;;;;;;;;;;;21.00;63.00;;;;;;5021440;28;20002;-60
2021/08/21 11:55:17;;;;;;;;;;;21.00;63.00;;;;;;5023185;28;20014;-59
2021/08/21 11:57:43;;;;;;;;;;;21.00;62.90;;;;;;5022212;28;20421;-60
2021/08/21 12:00:15;;;;;;;;;;;21.10;63.00;;;;;;5020976;28;20743;-60
2021/08/21 12:02:44;;;;;;;;;;;21.00;62.90;;;;;;5022256;28;20674;-59
2021/08/21 12:05:09;;;;;;;;;;;21.00;62.90;;;;;;5021093;28;19921;-59
2021/08/21 12:07:35;;;;;;;;;;;21.10;62.70;;;;;;5022194;28;19971;-60
2021/08/21 12:10:00;;;;;;;;;;;21.00;62.50;;;;;;5021301;28;19928;-58
2021/08/21 12:12:27;;;;;;;;;;;21.00;62.50;;;;;;5022458;28;19917;-59
2021/08/21 12:14:53;;;;;;;;;;;21.00;62.60;;;;;;5021571;28;19952;-61
2021/08/21 12:17:18;;;;;;;;;;;21.10;62.90;;;;;;5025616;28;19932;-60
2021/08/21 12:19:44;;;;;;;;;;;21.00;62.80;;;;;;5026341;28;19920;-61
2021/08/21 12:22:09;;;;;;;;;;;21.10;62.60;;;;;;5026329;28;19921;-60
2021/08/21 12:24:35;;;;;;;;;;;21.10;62.50;;;;;;5026232;28;20477;-59
2021/08/21 12:27:00;;;;;;;;;;;21.10;61.50;;;;;;5025299;28;19928;-61
2021/08/21 12:29:29;;;;;;;;;;;21.00;61.30;;;;;;5023598;28;19924;-59
2021/08/21 12:31:55;;;;;;;;;;;21.00;60.50;;;;;;5024276;28;19914;-58
2021/08/21 12:34:21;;;;;;;;;;;21.10;61.00;;;;;;5024365;28;19991;-59
2021/08/21 12:36:46;;;;;;;;;;;21.10;61.30;;;;;;5024742;28;19917;-60
2021/08/21 12:39:21;;;;;;;;;;;21.10;61.50;;;;;;5021587;28;20418;-61
2021/08/21 12:42:02;;;;;;;;;;;21.10;61.50;;;;;;5022860;28;20256;-60
2021/08/21 12:44:31;;;;;;;;;;;21.10;61.60;;;;;;5023321;28;19924;-60
2021/08/21 12:46:57;;;;;;;;;;;21.10;61.80;;;;;;5021241;28;19975;-59
2021/08/21 12:49:29;;;;;;;;;;;21.10;61.90;;;;;;5019722;28;19956;-60
2021/08/21 12:51:56;;;;;;;;;;;21.10;62.00;;;;;;5031273;28;19917;-62
2021/08/21 12:54:25;;;;;;;;;;;21.10;62.00;;;;;;5043448;28;19989;-59
2021/08/21 12:57:10;;;;;;;;;;;21.10;61.80;;;;;;5042478;28;19974;-58
2021/08/21 12:59:36;;;;;;;;;;;21.10;61.50;;;;;;5041918;28;20458;-60
2021/08/21 13:02:07;;;;;;;;;;;21.10;61.40;;;;;;5041808;28;20003;-59
2021/08/21 13:04:32;;;;;;;;;;;21.10;61.60;;;;;;5043338;28;20564;-58
2021/08/21 13:06:58;;;;;;;;;;;21.10;61.60;;;;;;5041534;28;19925;-59
2021/08/21 13:09:24;;;;;;;;;;;21.10;61.40;;;;;;5041420;28;20338;-59
2021/08/21 13:11:49;;;;;;;;;;;21.10;61.50;;;;;;5043447;28;19916;-61
2021/08/21 13:14:15;;;;;;;;;;;21.10;61.80;;;;;;5040980;28;20344;-58
2021/08/21 13:16:43;;;;;;;;;;;21.10;61.80;;;;;;5042705;28;19912;-59
2021/08/21 13:19:08;;;;;;;;;;;21.10;61.60;;;;;;5042462;28;19979;-58
2021/08/21 13:21:34;;;;;;;;;;;21.10;61.20;;;;;;5042744;28;20398;-61
2021/08/21 13:23:59;;;;;;;;;;;21.10;60.70;;;;;;5043017;28;19927;-58
2021/08/21 13:26:25;;;;;;;;;;;21.10;60.30;;;;;;5041139;28;19971;-59
2021/08/21 13:28:52;;;;;;;;;;;21.10;60.20;;;;;;5041884;28;19913;-61
2021/08/21 13:31:18;;;;;;;;;;;21.10;60.90;;;;;;5058601;22;20319;-65
2021/08/21 13:33:43;;;;;;;;;;;21.10;60.10;;;;;;5045131;28;19912;-65
2021/08/21 13:36:09;;;;;;;;;;;21.20;60.20;;;;;;5047601;28;19942;-65
2021/08/21 13:38:34;;;;;;;;;;;21.20;60.00;;;;;;5047563;28;20232;-64
2021/08/21 13:41:00;;;;;;;;;;;21.20;60.00;;;;;;5040142;28;19921;-64
2021/08/21 13:43:25;;;;;;;;;;;21.20;60.00;;;;;;5028159;28;19909;-64
2021/08/21 13:45:51;;;;;;;;;;;21.10;59.60;;;;;;5028182;28;19959;-64
2021/08/21 13:48:16;;;;;;;;;;;21.10;59.20;;;;;;5028698;28;19909;-63
2021/08/21 13:50:43;;;;;;;;;;;21.20;59.30;;;;;;5027283;28;19926;-65
2021/08/21 13:53:08;;;;;;;;;;;21.20;59.40;;;;;;5026967;28;19920;-65
2021/08/21 13:55:34;;;;;;;;;;;21.20;59.70;;;;;;5028428;28;19913;-65
2021/08/21 13:58:00;;;;;;;;;;;21.20;59.70;;;;;;5028592;28;19913;-65
2021/08/21 14:00:25;;;;;;;;;;;21.20;59.90;;;;;;5028461;28;20411;-65
2021/08/21 14:02:51;;;;;;;;;;;21.20;59.80;;;;;;5028604;28;19964;-64
2021/08/21 14:05:16;;;;;;;;;;;21.20;59.80;;;;;;5028492;28;19913;-65
2021/08/21 14:07:42;;;;;;;;;;;21.20;59.80;;;;;;5027317;28;19913;-64
2021/08/21 14:10:08;;;;;;;;;;;21.20;59.90;;;;;;5027481;28;19909;-65
2021/08/21 14:12:33;;;;;;;;;;;21.20;60.10;;;;;;5027586;28;20181;-65